Time;durP1;ratioP1;P1;durP2;ratioP2;P2;SDS_P1;SDS_P2;PMS_P1;PMS_P2;Temp;Humidity;BMP_temperature;BMP_pressure;BME280_temperature;BME280_humidity;BME280_pressure;Samples;Min_cycle;Max_cycle;Signal;HPM_P1;HPM_P2
2023/01/07 00:01:08;;;;;;;59.47;25.00;;;10.00;99.90;;;;;;4992047;28;20401;-65
2023/01/07 00:03:34;;;;;;;59.90;24.38;;;10.10;99.90;;;;;;4993224;28;20352;-66
2023/01/07 00:06:07;;;;;;;62.42;24.83;;;10.10;99.90;;;;;;4990866;28;20145;-67
2023/01/07 00:08:39;;;;;;;56.88;23.92;;;10.20;99.90;;;;;;4993419;28;20103;-66
2023/01/07 00:11:12;;;;;;;;;;;10.10;99.90;;;;;;4992171;28;20167;-67
2023/01/07 00:13:38;;;;;;;56.88;24.20;;;10.10;99.90;;;;;;5009767;28;20383;-66
2023/01/07 00:16:09;;;;;;;61.80;24.83;;;10.20;99.90;;;;;;4994501;28;20033;-67
2023/01/07 00:18:36;;;;;;;68.57;26.50;;;10.20;99.90;;;;;;4999562;28;20092;-66
2023/01/07 00:21:04;;;;;;;60.58;26.00;;;10.10;99.90;;;;;;4992177;28;20045;-65
2023/01/07 00:23:31;;;;;;;61.88;25.70;;;10.20;99.90;;;;;;4984980;28;20045;-65
2023/01/07 00:26:02;;;;;;;69.82;27.42;;;10.30;99.90;;;;;;4992352;28;20508;-65
2023/01/07 00:28:28;;;;;;;63.40;26.65;;;10.20;99.90;;;;;;5007754;28;20041;-64
2023/01/07 00:31:01;;;;;;;66.25;26.63;;;10.20;99.90;;;;;;4993438;28;20042;-64
2023/01/07 00:33:29;;;;;;;57.35;24.75;;;10.20;99.90;;;;;;4987793;28;20034;-64
2023/01/07 00:36:09;;;;;;;70.07;26.70;;;10.40;99.90;;;;;;5007883;28;20109;-64
2023/01/07 00:38:35;;;;;;;62.83;26.05;;;10.20;99.90;;;;;;4987626;28;20045;-64
2023/01/07 00:41:01;;;;;;;59.75;25.90;;;10.40;99.90;;;;;;5004344;28;20042;-64
2023/01/07 00:43:27;;;;;;;64.47;26.75;;;10.30;99.90;;;;;;4986656;28;20050;-64
2023/01/07 00:45:52;;;;;;;65.07;26.67;;;10.30;99.90;;;;;;4990160;28;20088;-64
2023/01/07 00:48:18;;;;;;;74.68;28.35;;;10.40;99.90;;;;;;5006371;28;20046;-65
2023/01/07 00:50:47;;;;;;;60.25;26.48;;;10.30;99.90;;;;;;4989690;28;20069;-63
2023/01/07 00:53:13;;;;;;;62.97;26.02;;;10.40;99.90;;;;;;4987343;28;20046;-64
2023/01/07 00:55:38;;;;;;;65.30;27.17;;;10.30;99.90;;;;;;4990665;28;20052;-63
2023/01/07 00:58:04;;;;;;;60.92;27.38;;;10.30;99.90;;;;;;4987065;28;20037;-63
2023/01/07 01:00:30;;;;;;;56.95;26.08;;;10.30;99.90;;;;;;4986013;28;20229;-63
2023/01/07 01:02:56;;;;;;;68.82;28.08;;;10.30;99.90;;;;;;5002304;28;20056;-63
2023/01/07 01:05:22;;;;;;;56.20;26.13;;;10.40;99.90;;;;;;4991637;28;20042;-64
2023/01/07 01:07:47;;;;;;;61.08;26.30;;;10.40;99.90;;;;;;4993891;28;20049;-65
2023/01/07 01:10:15;;;;;;;58.63;26.23;;;10.30;99.90;;;;;;5009122;28;20473;-64
2023/01/07 01:12:42;;;;;;;57.08;25.83;;;10.30;99.90;;;;;;5005837;28;20053;-63
2023/01/07 01:15:10;;;;;;;62.80;27.10;;;10.40;99.90;;;;;;4991120;28;20038;-66
2023/01/07 01:17:37;;;;;;;59.88;26.77;;;10.50;99.90;;;;;;4994554;28;20041;-64
2023/01/07 01:20:03;;;;;;;54.03;24.60;;;10.40;99.90;;;;;;5009400;28;20049;-64
2023/01/07 01:22:29;;;;;;;51.53;24.40;;;10.40;99.90;;;;;;5008205;28;20061;-64
2023/01/07 01:24:54;;;;;;;50.35;24.08;;;10.50;99.90;;;;;;4985186;28;20050;-65
2023/01/07 01:27:20;;;;;;;50.65;24.15;;;10.40;99.90;;;;;;4986411;28;20124;-65
2023/01/07 01:29:46;;;;;;;56.35;24.95;;;10.50;99.90;;;;;;4986072;28;20062;-64
2023/01/07 01:32:12;;;;;;;52.00;23.48;;;10.40;99.90;;;;;;4985543;28;20064;-64
2023/01/07 01:34:38;;;;;;;60.90;25.42;;;10.50;99.90;;;;;;4984708;28;20041;-64
2023/01/07 01:37:03;;;;;;;52.20;23.90;;;10.40;99.90;;;;;;4984501;28;20465;-64
2023/01/07 01:39:29;;;;;;;50.50;25.15;;;10.50;99.90;;;;;;4982301;28;20052;-67
2023/01/07 01:41:54;;;;;;;52.35;25.23;;;10.40;99.90;;;;;;4986237;28;20528;-65
2023/01/07 01:44:46;;;;;;;48.50;24.02;;;10.40;99.90;;;;;;4985414;28;20469;-64
2023/01/07 01:47:36;;;;;;;48.07;24.07;;;10.40;99.90;;;;;;4977801;28;20085;-64
2023/01/07 01:50:20;;;;;;;51.38;24.00;;;10.50;99.90;;;;;;4984621;28;20675;-64
2023/01/07 01:53:12;;;;;;;52.55;25.50;;;10.50;99.90;;;;;;5003237;28;20465;-65
2023/01/07 01:55:44;;;;;;;51.85;24.95;;;10.50;99.90;;;;;;4985625;28;20099;-64
2023/01/07 01:58:15;;;;;;;45.83;23.60;;;10.50;99.90;;;;;;4985882;28;20404;-64
2023/01/07 02:00:41;;;;;;;55.15;24.80;;;10.60;99.90;;;;;;4982140;28;20401;-64
2023/01/07 02:03:10;;;;;;;52.50;24.70;;;10.60;99.90;;;;;;5001306;28;20038;-64
2023/01/07 02:05:38;;;;;;;53.22;24.27;;;10.50;99.90;;;;;;4983477;28;20073;-65
2023/01/07 02:08:04;;;;;;;50.63;23.85;;;10.60;99.90;;;;;;5004008;28;20048;-65
2023/01/07 02:10:31;;;;;;;51.60;25.35;;;10.60;99.90;;;;;;4985273;28;20037;-65
2023/01/07 02:13:16;;;;;;;49.50;24.42;;;10.40;99.90;;;;;;4981317;28;20046;-65
2023/01/07 02:16:14;;;;;;;50.70;24.50;;;10.40;99.90;;;;;;4986068;28;20451;-65
2023/01/07 02:18:52;;;;;;;54.08;25.42;;;10.60;99.90;;;;;;4979196;28;20060;-65
2023/01/07 02:21:36;;;;;;;56.67;24.77;;;10.40;99.90;;;;;;4985012;28;20038;-65
2023/01/07 02:24:26;;;;;;;50.83;24.92;;;10.50;99.90;;;;;;4997590;28;20077;-66
2023/01/07 02:27:29;;;;;;;49.90;25.13;;;10.40;99.90;;;;;;4985201;28;20088;-64
2023/01/07 02:30:32;;;;;;;51.92;24.65;;;10.40;99.90;;;;;;4983916;28;20037;-64
2023/01/07 02:33:23;;;;;;;54.83;25.17;;;10.50;99.90;;;;;;5001314;28;20034;-65
2023/01/07 02:36:16;;;;;;;51.30;24.75;;;10.50;99.90;;;;;;4952611;28;20082;-66
2023/01/07 02:39:09;;;;;;;52.83;25.50;;;10.40;99.90;;;;;;4986619;28;20131;-66
2023/01/07 02:41:55;;;;;;;49.60;25.30;;;10.40;99.90;;;;;;4986304;28;20087;-66
2023/01/07 02:44:32;;;;;;;54.83;25.08;;;10.40;99.90;;;;;;4985939;28;20377;-66
2023/01/07 02:47:06;;;;;;;51.40;25.17;;;10.30;99.90;;;;;;4985255;28;20129;-66
2023/01/07 02:49:33;;;;;;;53.25;25.90;;;10.40;99.90;;;;;;5000128;28;20439;-67
2023/01/07 02:52:16;;;;;;;53.25;26.30;;;10.30;99.90;;;;;;4984280;28;20092;-65
2023/01/07 02:54:43;;;;;;;57.20;25.92;;;10.30;99.90;;;;;;4965125;28;20057;-66
2023/01/07 02:57:28;;;;;;;53.58;25.58;;;10.30;99.90;;;;;;4985212;28;20620;-67
2023/01/07 03:00:41;;;;;;;54.33;25.77;;;10.30;99.90;;;;;;4980806;28;20053;-66
2023/01/07 03:03:25;;;;;;;;;;;10.30;99.90;;;;;;4982157;28;20073;-66
2023/01/07 03:06:18;;;;;;;56.20;25.55;;;10.40;99.90;;;;;;4983798;28;19918;-65
2023/01/07 03:08:53;;;;;;;50.75;24.55;;;10.30;99.90;;;;;;4982807;28;20507;-66
2023/01/07 03:11:22;;;;;;;49.50;24.48;;;10.40;99.90;;;;;;4999858;28;20050;-67
2023/01/07 03:13:57;;;;;;;52.63;25.45;;;10.30;99.90;;;;;;4978680;28;20042;-66
2023/01/07 03:16:54;;;;;;;50.33;25.10;;;10.40;99.90;;;;;;4999796;28;20062;-67
2023/01/07 03:19:27;;;;;;;54.03;24.98;;;10.30;99.90;;;;;;4970038;28;20077;-67
2023/01/07 03:21:54;;;;;;;51.65;24.30;;;10.40;99.90;;;;;;4984291;28;20161;-65
2023/01/07 03:24:22;;;;;;;53.90;24.65;;;10.30;99.90;;;;;;5000376;28;20120;-67
2023/01/07 03:26:51;;;;;;;52.35;24.98;;;10.40;99.90;;;;;;4989920;28;20139;-66
2023/01/07 03:29:18;;;;;;;53.38;25.58;;;10.40;99.90;;;;;;4984482;28;20660;-66
2023/01/07 03:31:58;;;;;;;48.65;23.98;;;10.40;99.90;;;;;;4988485;28;20139;-68
2023/01/07 03:34:26;;;;;;;49.33;24.08;;;10.40;99.90;;;;;;4989897;28;20076;-67
2023/01/07 03:37:00;;;;;;;54.33;24.77;;;10.30;99.90;;;;;;4987177;28;20061;-67
2023/01/07 03:39:28;;;;;;;48.10;22.98;;;10.40;99.90;;;;;;4986303;28;20091;-67
2023/01/07 03:44:38;;;;;;;47.15;23.13;;;10.30;99.90;;;;;;4986320;28;20440;-68
2023/01/07 03:47:05;;;;;;;52.85;23.83;;;10.20;99.90;;;;;;4989693;28;20038;-66
2023/01/07 03:49:32;;;;;;;53.60;22.95;;;10.20;99.90;;;;;;4987598;28;20045;-67
2023/01/07 03:51:58;;;;;;;46.85;22.05;;;10.20;99.90;;;;;;4984366;28;20038;-67
2023/01/07 03:54:23;;;;;;;46.20;22.65;;;10.20;99.90;;;;;;4984973;28;20037;-66
2023/01/07 03:56:49;;;;;;;45.08;22.02;;;10.20;99.90;;;;;;5004969;28;20050;-66
2023/01/07 03:59:14;;;;;;;45.45;21.90;;;10.20;99.90;;;;;;4982299;28;20140;-68
2023/01/07 04:01:40;;;;;;;45.58;21.63;;;10.20;99.90;;;;;;4987394;28;20034;-66
2023/01/07 04:04:06;;;;;;;43.22;21.25;;;10.10;99.90;;;;;;4983664;28;20034;-66
2023/01/07 04:06:31;;;;;;;42.47;20.48;;;10.10;99.90;;;;;;4982007;28;20042;-69
2023/01/07 04:08:57;;;;;;;40.20;20.02;;;10.10;99.90;;;;;;4988654;28;20447;-66
2023/01/07 04:11:22;;;;;;;42.47;20.10;;;10.00;99.90;;;;;;4983720;28;20034;-67
2023/01/07 04:13:48;;;;;;;38.05;19.85;;;10.10;99.90;;;;;;4988762;28;20133;-67
2023/01/07 04:16:13;;;;;;;39.60;20.00;;;10.10;99.90;;;;;;5003617;28;20037;-68
2023/01/07 04:18:39;;;;;;;40.20;19.77;;;10.00;99.90;;;;;;4986197;28;20049;-67
2023/01/07 04:21:04;;;;;;;39.38;19.33;;;10.00;99.90;;;;;;4987412;28;20124;-65
2023/01/07 04:23:30;;;;;;;34.35;18.80;;;10.10;99.90;;;;;;4987204;28;20050;-69
2023/01/07 04:25:56;;;;;;;38.17;18.75;;;10.10;99.90;;;;;;4982675;28;20046;-68
2023/01/07 04:28:21;;;;;;;43.65;19.02;;;10.20;99.90;;;;;;4986148;28;20054;-67
2023/01/07 04:30:47;;;;;;;41.58;19.13;;;10.20;99.90;;;;;;4989389;28;20034;-67
2023/01/07 04:33:12;;;;;;;38.72;19.30;;;10.10;99.90;;;;;;4987303;28;21532;-67
2023/01/07 04:35:39;;;;;;;42.25;18.70;;;10.20;99.90;;;;;;4986613;28;20481;-67
2023/01/07 04:38:05;;;;;;;38.50;18.85;;;10.20;99.90;;;;;;4987743;28;20120;-67
2023/01/07 04:40:30;;;;;;;37.30;17.90;;;10.20;99.90;;;;;;4983286;28;20128;-66
2023/01/07 04:42:56;;;;;;;36.28;18.83;;;10.10;99.90;;;;;;4998405;28;20038;-69
2023/01/07 04:45:22;;;;;;;36.90;18.33;;;10.10;99.90;;;;;;4985526;28;20042;-66
2023/01/07 04:47:47;;;;;;;40.75;18.33;;;10.10;99.90;;;;;;4984085;28;20060;-68
2023/01/07 04:50:13;;;;;;;35.20;18.08;;;10.10;99.90;;;;;;5004473;28;20496;-66
2023/01/07 04:52:39;;;;;;;36.70;17.88;;;10.00;99.90;;;;;;4984427;28;20208;-68
2023/01/07 04:55:05;;;;;;;36.35;16.88;;;10.10;99.90;;;;;;4984634;28;20143;-68
2023/01/07 04:57:31;;;;;;;35.85;18.27;;;9.90;99.90;;;;;;4986827;28;20366;-66
2023/01/07 04:59:56;;;;;;;33.17;17.23;;;10.10;99.90;;;;;;4984490;28;20045;-67
2023/01/07 05:02:22;;;;;;;34.22;16.65;;;9.90;99.90;;;;;;4985718;28;20120;-68
2023/01/07 05:04:47;;;;;;;36.13;17.08;;;9.90;99.90;;;;;;4966446;28;20791;-67
2023/01/07 05:07:13;;;;;;;34.50;17.75;;;9.90;99.90;;;;;;5001913;28;20042;-69
2023/01/07 05:09:39;;;;;;;36.22;17.05;;;10.00;99.90;;;;;;4986482;28;20045;-66
2023/01/07 05:12:04;;;;;;;33.00;16.63;;;9.90;99.90;;;;;;4986110;28;20370;-68
2023/01/07 05:14:30;;;;;;;36.50;16.42;;;10.00;99.90;;;;;;4987224;28;20065;-68
2023/01/07 05:16:55;;;;;;;34.25;16.38;;;10.00;99.90;;;;;;5001704;28;21658;-67
2023/01/07 05:19:21;;;;;;;32.08;16.45;;;10.10;99.90;;;;;;4967282;28;20040;-67
2023/01/07 05:21:47;;;;;;;33.42;16.42;;;9.90;99.90;;;;;;5000173;28;20042;-66
2023/01/07 05:24:12;;;;;;;31.05;16.25;;;9.90;99.90;;;;;;4985650;28;20061;-68
2023/01/07 05:26:38;;;;;;;34.90;16.17;;;10.10;99.90;;;;;;5000334;28;20370;-68
2023/01/07 05:29:03;;;;;;;30.60;15.85;;;10.00;99.90;;;;;;5004229;28;20034;-66
2023/01/07 05:31:29;;;;;;;34.25;15.50;;;10.10;99.90;;;;;;4981822;28;20045;-67
2023/01/07 05:33:54;;;;;;;36.28;17.60;;;10.00;99.90;;;;;;4986280;28;20040;-68
2023/01/07 05:36:20;;;;;;;34.33;17.63;;;10.00;99.90;;;;;;4971102;28;20042;-68
2023/01/07 05:38:46;;;;;;;33.25;16.15;;;10.00;99.90;;;;;;5003065;28;20532;-67
2023/01/07 05:41:11;;;;;;;34.03;16.92;;;10.00;99.90;;;;;;4980653;28;20148;-68
2023/01/07 05:43:37;;;;;;;31.65;16.20;;;10.00;99.90;;;;;;5003136;28;20087;-67
2023/01/07 05:46:03;;;;;;;31.02;16.42;;;10.00;99.90;;;;;;4985558;28;20033;-68
2023/01/07 05:48:29;;;;;;;32.22;16.17;;;10.00;99.90;;;;;;4985952;28;20034;-68
2023/01/07 05:50:54;;;;;;;32.03;16.83;;;10.00;99.90;;;;;;5003877;28;20073;-67
2023/01/07 05:53:20;;;;;;;30.48;15.77;;;10.10;99.90;;;;;;4989194;28;20488;-69
2023/01/07 05:55:45;;;;;;;28.65;15.50;;;10.00;99.90;;;;;;5004885;28;20038;-68
2023/01/07 05:58:11;;;;;;;31.60;16.33;;;10.00;99.90;;;;;;5004538;28;20060;-66
2023/01/07 06:00:37;;;;;;;29.55;16.02;;;10.00;99.90;;;;;;4988620;28;20041;-67
2023/01/07 06:03:03;;;;;;;27.15;15.77;;;10.10;99.90;;;;;;4988435;28;20060;-67
2023/01/07 06:05:29;;;;;;;30.88;15.68;;;10.00;99.90;;;;;;4984664;28;20076;-68
2023/01/07 06:07:55;;;;;;;28.27;14.98;;;10.10;99.90;;;;;;5004363;28;20100;-67
2023/01/07 06:10:20;;;;;;;30.17;15.30;;;10.10;99.90;;;;;;4984843;28;20121;-69
2023/01/07 06:12:46;;;;;;;28.60;15.45;;;9.90;99.90;;;;;;5000759;28;20046;-68
2023/01/07 06:15:12;;;;;;;27.77;14.77;;;10.00;99.90;;;;;;5002882;28;20048;-68
2023/01/07 06:17:38;;;;;;;28.10;14.73;;;10.10;99.90;;;;;;4986426;28;20041;-67
2023/01/07 06:20:04;;;;;;;32.05;13.90;;;10.10;99.90;;;;;;4981326;28;20053;-68
2023/01/07 06:22:30;;;;;;;29.20;14.15;;;10.00;99.90;;;;;;4983956;28;20042;-66
2023/01/07 06:24:55;;;;;;;29.55;14.00;;;10.00;99.90;;;;;;4982023;28;20045;-69
2023/01/07 06:27:21;;;;;;;32.45;14.50;;;10.10;99.90;;;;;;4982545;28;20038;-68
2023/01/07 06:29:46;;;;;;;25.98;14.00;;;9.90;99.90;;;;;;4982070;28;20508;-66
2023/01/07 06:32:12;;;;;;;27.83;14.07;;;10.00;99.90;;;;;;4986218;28;20088;-69
2023/01/07 06:34:37;;;;;;;26.40;13.55;;;10.00;99.90;;;;;;4978106;28;20637;-68
2023/01/07 06:37:03;;;;;;;26.83;13.73;;;9.90;99.90;;;;;;5002855;28;20045;-69
2023/01/07 06:39:28;;;;;;;23.80;12.90;;;9.90;99.90;;;;;;4992504;28;20042;-69
2023/01/07 06:41:54;;;;;;;27.98;13.95;;;10.00;99.90;;;;;;4985579;28;20038;-67
2023/01/07 06:44:20;;;;;;;25.40;13.30;;;9.80;99.90;;;;;;5001882;28;20037;-67
2023/01/07 06:46:45;;;;;;;28.98;13.48;;;9.80;99.90;;;;;;4998416;28;20081;-69
2023/01/07 06:49:11;;;;;;;24.25;13.15;;;9.90;99.90;;;;;;4985757;28;20096;-68
2023/01/07 06:51:36;;;;;;;21.20;11.70;;;9.90;99.90;;;;;;4984591;28;20042;-68
2023/01/07 06:54:02;;;;;;;24.50;12.43;;;9.90;99.90;;;;;;4984495;28;20120;-68
2023/01/07 06:56:27;;;;;;;21.85;12.40;;;9.80;99.90;;;;;;4981763;28;20108;-69
2023/01/07 06:58:53;;;;;;;20.75;11.23;;;9.80;99.90;;;;;;4985626;28;20136;-68
2023/01/07 07:01:19;;;;;;;22.67;11.73;;;9.80;99.90;;;;;;4987702;28;20489;-67
2023/01/07 07:03:44;;;;;;;21.98;11.38;;;9.80;99.90;;;;;;4989472;28;20132;-67
2023/01/07 07:06:10;;;;;;;23.10;11.45;;;9.70;99.90;;;;;;4986497;28;20045;-67
2023/01/07 07:08:36;;;;;;;21.90;11.05;;;9.60;99.90;;;;;;4988279;28;20624;-67
2023/01/07 07:11:01;;;;;;;19.17;10.48;;;9.70;99.90;;;;;;4985451;28;20040;-69
2023/01/07 07:13:27;;;;;;;20.15;10.85;;;9.60;99.90;;;;;;4984540;28;20477;-65
2023/01/07 07:15:52;;;;;;;22.85;10.48;;;9.60;99.90;;;;;;4999524;28;20113;-66
2023/01/07 07:18:19;;;;;;;18.63;10.00;;;9.60;99.90;;;;;;4990915;28;20567;-67
2023/01/07 07:20:45;;;;;;;18.17;9.85;;;9.50;99.90;;;;;;5003211;28;20042;-67
2023/01/07 07:23:11;;;;;;;21.73;10.43;;;9.60;99.90;;;;;;4985334;28;20127;-68
2023/01/07 07:25:36;;;;;;;24.52;10.65;;;9.50;99.90;;;;;;5001568;28;20180;-67
2023/01/07 07:28:03;;;;;;;22.38;9.93;;;9.50;99.90;;;;;;4970384;28;20046;-67
2023/01/07 07:30:28;;;;;;;22.02;10.65;;;9.50;99.90;;;;;;4986799;28;20080;-68
2023/01/07 07:32:54;;;;;;;16.90;9.38;;;9.40;99.90;;;;;;4987242;28;20042;-68
2023/01/07 07:35:19;;;;;;;21.48;10.13;;;9.40;99.90;;;;;;4987364;28;20087;-68
2023/01/07 07:37:45;;;;;;;18.90;9.45;;;9.30;99.90;;;;;;4987921;28;20053;-69
2023/01/07 07:40:11;;;;;;;18.17;9.63;;;9.40;99.90;;;;;;4984384;28;20521;-68
2023/01/07 07:42:38;;;;;;;16.98;9.85;;;9.40;99.90;;;;;;4986891;28;20045;-68
2023/01/07 07:45:05;;;;;;;19.50;8.95;;;9.30;99.90;;;;;;4986290;28;20045;-68
2023/01/07 07:47:31;;;;;;;23.23;9.85;;;9.20;99.90;;;;;;4983762;28;20050;-68
2023/01/07 07:49:56;;;;;;;18.40;9.52;;;9.20;99.90;;;;;;5004147;28;20452;-67
2023/01/07 07:52:22;;;;;;;20.13;9.55;;;9.20;99.90;;;;;;5001077;28;20045;-68
2023/01/07 07:54:48;;;;;;;18.88;9.40;;;9.20;99.90;;;;;;5000731;28;20378;-68
2023/01/07 07:57:13;;;;;;;20.80;9.80;;;9.30;99.90;;;;;;5000193;28;20034;-67
2023/01/07 07:59:39;;;;;;;19.55;10.00;;;9.10;99.90;;;;;;4988443;28;20042;-67
2023/01/07 08:02:04;;;;;;;18.25;9.77;;;9.10;99.90;;;;;;4986386;28;20401;-68
2023/01/07 08:04:33;;;;;;;19.20;10.07;;;9.10;99.90;;;;;;4987837;28;20046;-68
2023/01/07 08:07:02;;;;;;;20.10;9.43;;;9.10;99.90;;;;;;4985738;28;20052;-70
2023/01/07 08:09:27;;;;;;;25.92;11.45;;;9.10;99.90;;;;;;4986945;28;20042;-66
2023/01/07 08:11:54;;;;;;;18.42;9.65;;;9.10;99.90;;;;;;5002118;28;20034;-68
2023/01/07 08:14:19;;;;;;;19.75;10.15;;;9.10;99.90;;;;;;4985802;28;20129;-68
2023/01/07 08:16:45;;;;;;;23.15;10.02;;;9.00;99.90;;;;;;4987741;28;20129;-68
2023/01/07 08:19:10;;;;;;;21.23;9.65;;;9.20;99.90;;;;;;4987647;28;20573;-68
2023/01/07 08:21:36;;;;;;;19.95;10.10;;;9.10;99.90;;;;;;4987046;28;21320;-68
2023/01/07 08:24:02;;;;;;;20.88;10.23;;;9.10;99.90;;;;;;4986031;28;20048;-67
2023/01/07 08:26:27;;;;;;;18.05;9.43;;;9.20;99.90;;;;;;4982466;28;20037;-67
2023/01/07 08:28:53;;;;;;;16.27;8.70;;;9.10;99.90;;;;;;4988045;28;20038;-70
2023/01/07 08:31:19;;;;;;;18.05;9.27;;;9.20;99.90;;;;;;4984539;28;20189;-68
2023/01/07 08:33:44;;;;;;;19.88;8.88;;;9.10;99.90;;;;;;4988881;28;21789;-68
2023/01/07 08:36:10;;;;;;;16.88;9.18;;;9.20;99.90;;;;;;4979977;28;20036;-65
2023/01/07 08:38:36;;;;;;;18.25;8.98;;;9.10;99.90;;;;;;4986764;28;20444;-68
2023/01/07 08:41:01;;;;;;;17.70;9.13;;;9.10;99.90;;;;;;4985449;28;20037;-68
2023/01/07 08:43:27;;;;;;;20.42;9.18;;;9.20;99.90;;;;;;4986366;28;20076;-67
2023/01/07 08:45:54;;;;;;;17.10;9.27;;;9.10;99.90;;;;;;4949431;28;1058952;-68
2023/01/07 08:48:19;;;;;;;16.42;8.68;;;9.10;99.90;;;;;;4986264;28;20076;-68
2023/01/07 08:50:50;;;;;;;16.92;8.95;;;9.10;99.90;;;;;;4988069;28;20046;-68
2023/01/07 08:53:16;;;;;;;17.75;9.38;;;9.10;99.90;;;;;;4984601;28;20121;-68
2023/01/07 08:55:42;;;;;;;21.17;9.38;;;9.10;99.90;;;;;;4967779;28;20128;-68
2023/01/07 08:58:07;;;;;;;17.75;8.48;;;9.10;99.90;;;;;;4991314;28;20042;-68
2023/01/07 09:00:33;;;;;;;16.17;8.13;;;9.10;99.90;;;;;;4984983;28;20045;-68
2023/01/07 09:02:59;;;;;;;20.30;8.50;;;9.10;99.90;;;;;;5005501;28;20034;-68
2023/01/07 09:05:24;;;;;;;15.20;8.65;;;9.20;99.90;;;;;;5004466;28;20034;-70
2023/01/07 09:07:54;;;;;;;14.15;8.02;;;9.20;99.90;;;;;;4991145;28;20065;-67
2023/01/07 09:10:20;;;;;;;19.25;9.20;;;9.10;99.90;;;;;;5006600;28;20041;-68
2023/01/07 09:12:45;;;;;;;16.05;9.18;;;9.10;99.90;;;;;;4987854;28;20540;-68
2023/01/07 09:15:11;;;;;;;14.32;9.05;;;9.10;99.90;;;;;;4988053;28;20034;-67
2023/01/07 09:17:37;;;;;;;17.45;8.82;;;9.20;99.90;;;;;;5005261;28;20092;-67
2023/01/07 09:20:04;;;;;;;16.70;8.25;;;9.10;99.90;;;;;;4987459;28;20074;-67
2023/01/07 09:22:31;;;;;;;13.93;8.32;;;9.20;99.90;;;;;;4990218;28;20050;-68
2023/01/07 09:24:57;;;;;;;16.75;8.85;;;9.20;99.90;;;;;;4977044;28;20073;-66
2023/01/07 09:27:22;;;;;;;14.35;7.75;;;9.10;99.90;;;;;;4992432;28;20522;-67
2023/01/07 09:29:48;;;;;;;14.48;7.60;;;9.20;99.90;;;;;;4994063;28;20042;-67
2023/01/07 09:32:14;;;;;;;15.48;7.30;;;9.20;99.90;;;;;;4984898;28;20034;-67
2023/01/07 09:34:39;;;;;;;17.13;8.10;;;9.20;99.90;;;;;;5009025;28;20125;-67
2023/01/07 09:37:05;;;;;;;13.93;7.25;;;9.20;99.90;;;;;;4996367;28;20073;-67
2023/01/07 09:39:31;;;;;;;15.20;7.88;;;9.30;99.90;;;;;;4989933;28;20042;-65
2023/01/07 09:42:12;;;;;;;12.32;7.03;;;9.40;99.90;;;;;;4992789;28;20133;-67
2023/01/07 09:44:56;;;;;;;14.77;7.65;;;9.50;99.90;;;;;;5001825;28;20041;-67
2023/01/07 09:47:24;;;;;;;13.30;7.70;;;9.50;99.90;;;;;;4990303;28;20045;-68
2023/01/07 09:49:56;;;;;;;15.43;7.70;;;9.60;99.90;;;;;;5000321;28;20033;-67
2023/01/07 09:52:27;;;;;;;13.18;7.00;;;9.60;99.90;;;;;;4991636;28;20559;-67
2023/01/07 09:55:01;;;;;;;15.50;7.43;;;9.70;99.90;;;;;;4993237;28;20038;-67
2023/01/07 09:57:27;;;;;;;14.35;7.38;;;9.70;99.90;;;;;;5000741;28;20075;-68
2023/01/07 09:59:53;;;;;;;12.95;6.80;;;9.70;99.90;;;;;;4988178;28;20481;-68
2023/01/07 10:02:49;;;;;;;12.32;7.05;;;9.80;99.90;;;;;;4986473;28;20061;-67
2023/01/07 10:05:34;;;;;;;14.43;6.70;;;9.90;99.90;;;;;;4991836;28;20049;-68
2023/01/07 10:08:14;;;;;;;12.30;6.28;;;9.90;99.90;;;;;;4973470;28;20061;-67
2023/01/07 10:10:50;;;;;;;11.23;5.72;;;10.00;99.90;;;;;;5004796;28;20084;-67
2023/01/07 10:13:36;;;;;;;10.50;5.68;;;10.10;99.90;;;;;;4988455;28;20706;-68
2023/01/07 10:16:32;;;;;;;11.07;5.10;;;10.10;99.90;;;;;;5002781;28;20462;-66
2023/01/07 10:19:23;;;;;;;7.88;4.95;;;10.10;99.90;;;;;;4981293;28;20077;-68
2023/01/07 10:22:01;;;;;;;8.68;4.60;;;10.30;99.90;;;;;;4988172;28;20054;-68
2023/01/07 10:24:32;;;;;;;10.25;4.47;;;10.30;99.90;;;;;;4991648;28;20073;-66
2023/01/07 10:27:02;;;;;;;8.73;4.28;;;10.30;99.90;;;;;;4991475;28;20481;-67
2023/01/07 10:29:34;;;;;;;8.93;4.75;;;10.30;99.90;;;;;;5006870;28;20153;-67
2023/01/07 10:32:10;;;;;;;8.88;4.38;;;10.30;99.90;;;;;;5006924;28;20045;-66
2023/01/07 10:34:43;;;;;;;8.52;4.25;;;10.40;99.90;;;;;;5010734;28;20049;-66
2023/01/07 10:37:32;;;;;;;6.03;3.83;;;10.40;99.90;;;;;;4994480;28;20061;-68
2023/01/07 10:40:19;;;;;;;6.15;3.85;;;10.40;99.90;;;;;;4994460;28;20046;-67
2023/01/07 10:43:13;;;;;;;8.38;4.15;;;10.50;99.90;;;;;;5011430;28;20046;-66
2023/01/07 10:45:44;;;;;;;8.80;4.25;;;10.60;99.90;;;;;;4994155;28;20042;-66
2023/01/07 10:48:31;;;;;;;7.38;4.10;;;10.60;99.90;;;;;;4996972;28;20041;-66
2023/01/07 10:51:16;;;;;;;8.02;4.30;;;10.60;99.90;;;;;;4992939;28;20045;-66
2023/01/07 10:53:56;;;;;;;7.25;4.03;;;10.60;99.90;;;;;;4994927;28;20077;-67
2023/01/07 10:56:43;;;;;;;6.97;4.10;;;10.70;99.90;;;;;;5011907;28;20042;-65
2023/01/07 10:59:16;;;;;;;10.43;4.05;;;10.60;99.90;;;;;;4987795;28;20057;-67
2023/01/07 11:01:47;;;;;;;5.55;3.80;;;10.70;99.90;;;;;;4973187;28;20283;-65
2023/01/07 11:04:14;;;;;;;8.10;3.67;;;10.70;99.90;;;;;;4992713;28;20115;-66
2023/01/07 11:06:46;;;;;;;7.05;3.85;;;10.70;99.90;;;;;;5010195;28;20049;-67
2023/01/07 11:09:17;;;;;;;6.90;3.83;;;10.70;99.90;;;;;;4995537;28;20694;-67
2023/01/07 11:11:43;;;;;;;7.47;3.88;;;10.70;99.90;;;;;;5007494;28;20293;-66
2023/01/07 11:14:20;;;;;;;8.27;3.75;;;10.80;99.90;;;;;;4995511;28;20120;-65
2023/01/07 11:16:54;;;;;;;7.05;4.20;;;10.80;99.90;;;;;;5012017;28;20543;-67
2023/01/07 11:19:20;;;;;;;6.88;3.90;;;10.80;99.90;;;;;;4995873;28;20133;-67
2023/01/07 11:21:51;;;;;;;11.07;4.60;;;10.80;99.90;;;;;;5007573;28;20416;-68
2023/01/07 11:24:28;;;;;;;7.63;3.90;;;10.80;99.90;;;;;;4993489;28;20057;-66
2023/01/07 11:27:13;;;;;;;7.25;3.97;;;10.80;99.90;;;;;;4992181;28;20038;-66
2023/01/07 11:30:01;;;;;;;7.57;3.88;;;10.80;99.90;;;;;;4997371;28;20389;-66
2023/01/07 11:32:30;;;;;;;5.45;3.85;;;10.80;99.90;;;;;;5012855;28;20081;-67
2023/01/07 11:35:02;;;;;;;5.65;3.80;;;10.90;99.90;;;;;;5005648;28;20034;-67
2023/01/07 11:37:39;;;;;;;6.88;3.83;;;10.90;99.90;;;;;;5012043;28;20046;-68
2023/01/07 11:40:27;;;;;;;7.68;3.58;;;10.90;99.90;;;;;;5006080;28;20040;-67
2023/01/07 11:43:01;;;;;;;6.35;3.88;;;10.90;99.90;;;;;;5006297;28;20059;-67
2023/01/07 11:45:51;;;;;;;7.03;4.38;;;11.00;99.90;;;;;;5004268;28;20161;-67
2023/01/07 11:48:25;;;;;;;7.88;4.38;;;11.00;99.90;;;;;;4987279;28;20046;-68
2023/01/07 11:50:57;;;;;;;8.10;4.50;;;11.00;99.90;;;;;;4988210;28;20179;-68
2023/01/07 11:53:48;;;;;;;9.07;4.40;;;11.00;99.90;;;;;;4986556;28;20042;-67
2023/01/07 11:56:19;;;;;;;8.43;4.20;;;11.00;99.90;;;;;;5003491;28;20046;-69
2023/01/07 11:58:50;;;;;;;6.93;4.23;;;11.10;99.90;;;;;;4987016;28;20050;-68
2023/01/07 12:01:19;;;;;;;5.93;3.63;;;11.10;99.90;;;;;;5003543;28;20030;-68
2023/01/07 12:03:51;;;;;;;6.05;3.75;;;11.10;99.90;;;;;;5003551;28;20042;-68
2023/01/07 12:06:24;;;;;;;10.97;3.90;;;11.10;99.90;;;;;;4986254;28;20045;-66
2023/01/07 12:09:02;;;;;;;6.90;4.20;;;11.10;99.90;;;;;;4987424;28;20050;-67
2023/01/07 12:11:31;;;;;;;6.78;4.00;;;11.10;99.90;;;;;;4986423;28;20038;-66
2023/01/07 12:14:06;;;;;;;6.97;3.97;;;11.10;99.90;;;;;;4997984;28;20073;-65
2023/01/07 12:16:33;;;;;;;7.07;4.00;;;11.00;99.90;;;;;;4984138;28;20065;-66
2023/01/07 12:19:30;;;;;;;5.53;3.92;;;11.00;99.90;;;;;;5005376;28;20140;-66
2023/01/07 12:22:35;;;;;;;6.10;3.70;;;11.00;99.90;;;;;;5004514;28;20088;-66
2023/01/07 12:25:27;;;;;;;6.50;4.10;;;11.00;99.90;;;;;;4987759;28;20369;-66
2023/01/07 12:28:31;;;;;;;5.88;3.70;;;11.00;99.90;;;;;;4988838;28;20438;-67
2023/01/07 12:31:45;;;;;;;5.72;3.90;;;11.00;99.90;;;;;;4978890;28;20054;-66
2023/01/07 12:34:41;;;;;;;6.32;3.50;;;10.90;99.90;;;;;;4970022;28;20061;-66
2023/01/07 12:37:42;;;;;;;8.88;3.30;;;10.90;99.90;;;;;;4981626;28;20531;-67
2023/01/07 12:40:16;;;;;;;6.05;3.63;;;10.90;99.90;;;;;;5000784;28;20068;-65
2023/01/07 12:42:49;;;;;;;6.78;3.30;;;10.90;99.90;;;;;;4986664;28;20104;-65
2023/01/07 12:45:27;;;;;;;5.78;3.47;;;10.90;99.90;;;;;;5004898;28;20466;-66
2023/01/07 12:48:01;;;;;;;6.05;3.50;;;10.90;99.90;;;;;;4998673;28;20481;-65
2023/01/07 12:50:39;;;;;;;5.78;3.65;;;10.90;99.90;;;;;;4983502;28;20298;-65
2023/01/07 12:53:11;;;;;;;4.97;3.42;;;11.00;99.90;;;;;;5008898;28;20042;-66
2023/01/07 12:55:46;;;;;;;4.28;3.17;;;10.90;99.90;;;;;;4992076;28;20041;-65
2023/01/07 12:58:36;;;;;;;5.90;3.47;;;11.00;99.90;;;;;;4992351;28;20041;-66